sensor_id;sensor_type;location;lat;lon;timestamp;temperature;humidity
53748;DHT22;39655;53.210;5.768;2022-09-09T00:04:39;15.20;93.00
53748;DHT22;39655;53.210;5.768;2022-09-09T00:15:54;15.10;93.30
53748;DHT22;39655;53.210;5.768;2022-09-09T00:18:38;15.10;93.40
53748;DHT22;39655;53.210;5.768;2022-09-09T00:21:13;15.10;93.50
53748;DHT22;39655;53.210;5.768;2022-09-09T00:23:52;15.10;93.50
53748;DHT22;39655;53.210;5.768;2022-09-09T00:26:35;15.10;93.50
53748;DHT22;39655;53.210;5.768;2022-09-09T00:31:38;15.10;93.50
53748;DHT22;39655;53.210;5.768;2022-09-09T00:36:42;15.10;93.40
53748;DHT22;39655;53.210;5.768;2022-09-09T00:39:32;15.10;93.40
53748;DHT22;39655;53.210;5.768;2022-09-09T00:42:25;15.10;93.40
53748;DHT22;39655;53.210;5.768;2022-09-09T00:44:59;15.00;93.40
53748;DHT22;39655;53.210;5.768;2022-09-09T00:47:46;15.00;93.40
53748;DHT22;39655;53.210;5.768;2022-09-09T00:58:36;14.90;93.60
53748;DHT22;39655;53.210;5.768;2022-09-09T01:01:07;14.90;93.70
53748;DHT22;39655;53.210;5.768;2022-09-09T01:03:54;14.90;93.70
53748;DHT22;39655;53.210;5.768;2022-09-09T01:06:37;14.90;93.70
53748;DHT22;39655;53.210;5.768;2022-09-09T01:09:27;14.80;93.70
53748;DHT22;39655;53.210;5.768;2022-09-09T01:12:12;14.80;93.70
53748;DHT22;39655;53.210;5.768;2022-09-09T01:14:48;14.80;93.70
53748;DHT22;39655;53.210;5.768;2022-09-09T01:17:30;14.80;93.80
53748;DHT22;39655;53.210;5.768;2022-09-09T01:28:00;14.70;94.00
53748;DHT22;39655;53.210;5.768;2022-09-09T01:30:26;14.70;94.10
53748;DHT22;39655;53.210;5.768;2022-09-09T01:32:57;14.70;94.10
53748;DHT22;39655;53.210;5.768;2022-09-09T01:38:03;14.80;94.20
53748;DHT22;39655;53.210;5.768;2022-09-09T01:40:29;14.70;94.10
53748;DHT22;39655;53.210;5.768;2022-09-09T01:42:55;14.70;94.10
53748;DHT22;39655;53.210;5.768;2022-09-09T01:45:22;14.70;94.10
53748;DHT22;39655;53.210;5.768;2022-09-09T01:47:48;14.70;94.10
53748;DHT22;39655;53.210;5.768;2022-09-09T01:50:15;14.70;94.10
53748;DHT22;39655;53.210;5.768;2022-09-09T01:52:43;14.60;94.10
53748;DHT22;39655;53.210;5.768;2022-09-09T01:55:10;14.70;94.10
53748;DHT22;39655;53.210;5.768;2022-09-09T01:57:58;14.60;94.10
53748;DHT22;39655;53.210;5.768;2022-09-09T02:00:29;14.60;94.10
53748;DHT22;39655;53.210;5.768;2022-09-09T02:08:24;14.60;94.30
53748;DHT22;39655;53.210;5.768;2022-09-09T02:13:39;14.60;94.30
53748;DHT22;39655;53.210;5.768;2022-09-09T02:18:55;14.50;94.50
53748;DHT22;39655;53.210;5.768;2022-09-09T02:21:23;14.50;94.40
53748;DHT22;39655;53.210;5.768;2022-09-09T02:23:50;14.50;94.50
53748;DHT22;39655;53.210;5.768;2022-09-09T02:26:20;14.50;94.50
53748;DHT22;39655;53.210;5.768;2022-09-09T02:28:51;14.40;94.50
53748;DHT22;39655;53.210;5.768;2022-09-09T02:31:21;14.40;94.50
53748;DHT22;39655;53.210;5.768;2022-09-09T02:33:54;14.40;94.50
53748;DHT22;39655;53.210;5.768;2022-09-09T02:36:23;14.40;94.50
53748;DHT22;39655;53.210;5.768;2022-09-09T02:38:51;14.40;94.50
53748;DHT22;39655;53.210;5.768;2022-09-09T02:41:37;14.40;94.60
53748;DHT22;39655;53.210;5.768;2022-09-09T02:44:14;14.40;94.60
53748;DHT22;39655;53.210;5.768;2022-09-09T02:46:55;14.30;94.60
53748;DHT22;39655;53.210;5.768;2022-09-09T02:49:39;14.30;94.60
53748;DHT22;39655;53.210;5.768;2022-09-09T02:52:08;14.30;94.70
53748;DHT22;39655;53.210;5.768;2022-09-09T02:54:35;14.30;94.70
53748;DHT22;39655;53.210;5.768;2022-09-09T02:57:16;14.30;94.80
53748;DHT22;39655;53.210;5.768;2022-09-09T02:59:44;14.30;94.80
53748;DHT22;39655;53.210;5.768;2022-09-09T03:02:10;14.30;94.80
53748;DHT22;39655;53.210;5.768;2022-09-09T03:04:39;14.30;94.90
53748;DHT22;39655;53.210;5.768;2022-09-09T03:07:06;14.30;94.90
53748;DHT22;39655;53.210;5.768;2022-09-09T03:09:31;14.30;94.90
53748;DHT22;39655;53.210;5.768;2022-09-09T03:11:58;14.30;95.00
53748;DHT22;39655;53.210;5.768;2022-09-09T03:14:24;14.30;95.00
53748;DHT22;39655;53.210;5.768;2022-09-09T03:16:54;14.30;95.00
53748;DHT22;39655;53.210;5.768;2022-09-09T03:19:21;14.30;95.10
53748;DHT22;39655;53.210;5.768;2022-09-09T03:21:47;14.30;95.10
53748;DHT22;39655;53.210;5.768;2022-09-09T03:24:14;14.30;95.10
53748;DHT22;39655;53.210;5.768;2022-09-09T03:26:41;14.30;95.10
53748;DHT22;39655;53.210;5.768;2022-09-09T03:29:07;14.30;95.20
53748;DHT22;39655;53.210;5.768;2022-09-09T03:31:36;14.20;95.20
53748;DHT22;39655;53.210;5.768;2022-09-09T03:34:02;14.20;95.20
53748;DHT22;39655;53.210;5.768;2022-09-09T03:36:28;14.20;95.30
53748;DHT22;39655;53.210;5.768;2022-09-09T03:38:55;14.30;95.40
53748;DHT22;39655;53.210;5.768;2022-09-09T03:41:22;14.30;95.40
53748;DHT22;39655;53.210;5.768;2022-09-09T03:43:52;14.30;95.50
53748;DHT22;39655;53.210;5.768;2022-09-09T03:46:19;14.30;95.50
53748;DHT22;39655;53.210;5.768;2022-09-09T03:48:46;14.30;95.50
53748;DHT22;39655;53.210;5.768;2022-09-09T03:51:12;14.20;95.50
53748;DHT22;39655;53.210;5.768;2022-09-09T03:53:39;14.20;95.50
53748;DHT22;39655;53.210;5.768;2022-09-09T03:56:06;14.20;95.40
53748;DHT22;39655;53.210;5.768;2022-09-09T03:58:36;14.20;95.50
53748;DHT22;39655;53.210;5.768;2022-09-09T04:01:05;14.20;95.50
53748;DHT22;39655;53.210;5.768;2022-09-09T04:03:32;14.20;95.50
53748;DHT22;39655;53.210;5.768;2022-09-09T04:05:59;14.20;95.50
53748;DHT22;39655;53.210;5.768;2022-09-09T04:08:26;14.20;95.50
53748;DHT22;39655;53.210;5.768;2022-09-09T04:10:52;14.20;95.50
53748;DHT22;39655;53.210;5.768;2022-09-09T04:13:19;14.20;95.50
53748;DHT22;39655;53.210;5.768;2022-09-09T04:15:55;14.20;95.50
53748;DHT22;39655;53.210;5.768;2022-09-09T04:18:22;14.20;95.60
53748;DHT22;39655;53.210;5.768;2022-09-09T04:20:49;14.20;95.60
53748;DHT22;39655;53.210;5.768;2022-09-09T04:23:16;14.20;95.60
53748;DHT22;39655;53.210;5.768;2022-09-09T04:25:48;14.20;95.70
53748;DHT22;39655;53.210;5.768;2022-09-09T04:28:15;14.20;95.60
53748;DHT22;39655;53.210;5.768;2022-09-09T04:30:41;14.20;95.60
53748;DHT22;39655;53.210;5.768;2022-09-09T04:33:08;14.20;95.60
53748;DHT22;39655;53.210;5.768;2022-09-09T04:35:35;14.20;95.70
53748;DHT22;39655;53.210;5.768;2022-09-09T04:38:02;14.20;95.70
53748;DHT22;39655;53.210;5.768;2022-09-09T04:40:32;14.20;95.70
53748;DHT22;39655;53.210;5.768;2022-09-09T04:42:59;14.20;95.70
53748;DHT22;39655;53.210;5.768;2022-09-09T04:45:28;14.20;95.70
53748;DHT22;39655;53.210;5.768;2022-09-09T04:47:54;14.20;95.80
53748;DHT22;39655;53.210;5.768;2022-09-09T04:50:20;14.20;95.80
53748;DHT22;39655;53.210;5.768;2022-09-09T04:52:46;14.20;95.80
53748;DHT22;39655;53.210;5.768;2022-09-09T04:55:12;14.20;95.80
53748;DHT22;39655;53.210;5.768;2022-09-09T04:57:39;14.20;95.80
53748;DHT22;39655;53.210;5.768;2022-09-09T05:00:05;14.20;95.90
53748;DHT22;39655;53.210;5.768;2022-09-09T05:02:31;14.20;95.90
53748;DHT22;39655;53.210;5.768;2022-09-09T05:04:57;14.20;95.90
53748;DHT22;39655;53.210;5.768;2022-09-09T05:07:26;14.20;95.90
53748;DHT22;39655;53.210;5.768;2022-09-09T05:09:52;14.20;95.90
53748;DHT22;39655;53.210;5.768;2022-09-09T05:12:18;14.20;95.90
53748;DHT22;39655;53.210;5.768;2022-09-09T05:14:44;14.20;95.90
53748;DHT22;39655;53.210;5.768;2022-09-09T05:17:10;14.30;95.90
53748;DHT22;39655;53.210;5.768;2022-09-09T05:19:36;14.30;96.00
53748;DHT22;39655;53.210;5.768;2022-09-09T05:22:02;14.30;96.00
53748;DHT22;39655;53.210;5.768;2022-09-09T05:24:29;14.30;96.00
53748;DHT22;39655;53.210;5.768;2022-09-09T05:26:58;14.30;96.00
53748;DHT22;39655;53.210;5.768;2022-09-09T05:29:25;14.30;96.00
53748;DHT22;39655;53.210;5.768;2022-09-09T05:31:52;14.30;96.00
53748;DHT22;39655;53.210;5.768;2022-09-09T05:34:17;14.40;96.00
53748;DHT22;39655;53.210;5.768;2022-09-09T05:36:43;14.40;96.10
53748;DHT22;39655;53.210;5.768;2022-09-09T05:39:09;14.40;96.00
53748;DHT22;39655;53.210;5.768;2022-09-09T05:41:37;14.40;96.00
53748;DHT22;39655;53.210;5.768;2022-09-09T05:44:03;14.40;96.00
53748;DHT22;39655;53.210;5.768;2022-09-09T05:46:29;14.40;96.00
53748;DHT22;39655;53.210;5.768;2022-09-09T05:48:55;14.40;96.00
53748;DHT22;39655;53.210;5.768;2022-09-09T05:51:23;14.40;96.00
53748;DHT22;39655;53.210;5.768;2022-09-09T05:53:50;14.40;96.00
53748;DHT22;39655;53.210;5.768;2022-09-09T05:56:24;14.40;96.00
53748;DHT22;39655;53.210;5.768;2022-09-09T05:58:51;14.40;96.00
53748;DHT22;39655;53.210;5.768;2022-09-09T06:01:24;14.40;96.00
53748;DHT22;39655;53.210;5.768;2022-09-09T06:03:51;14.50;96.00
53748;DHT22;39655;53.210;5.768;2022-09-09T06:06:20;14.50;96.00
53748;DHT22;39655;53.210;5.768;2022-09-09T06:08:47;14.50;96.00
53748;DHT22;39655;53.210;5.768;2022-09-09T06:11:16;14.50;96.00
53748;DHT22;39655;53.210;5.768;2022-09-09T06:13:42;14.60;96.00
53748;DHT22;39655;53.210;5.768;2022-09-09T06:16:12;14.60;96.00
53748;DHT22;39655;53.210;5.768;2022-09-09T06:18:39;14.60;96.00
53748;DHT22;39655;53.210;5.768;2022-09-09T06:21:08;14.70;96.00
53748;DHT22;39655;53.210;5.768;2022-09-09T06:23:34;14.70;96.00
53748;DHT22;39655;53.210;5.768;2022-09-09T06:26:10;14.80;96.00
53748;DHT22;39655;53.210;5.768;2022-09-09T06:28:36;14.80;95.90
53748;DHT22;39655;53.210;5.768;2022-09-09T06:31:08;14.80;95.90
53748;DHT22;39655;53.210;5.768;2022-09-09T06:33:36;14.80;95.80
53748;DHT22;39655;53.210;5.768;2022-09-09T06:36:05;14.90;95.80
53748;DHT22;39655;53.210;5.768;2022-09-09T06:38:31;14.90;95.80
53748;DHT22;39655;53.210;5.768;2022-09-09T06:40:59;14.90;95.70
53748;DHT22;39655;53.210;5.768;2022-09-09T06:43:32;14.90;95.70
53748;DHT22;39655;53.210;5.768;2022-09-09T06:45:59;15.00;95.60
53748;DHT22;39655;53.210;5.768;2022-09-09T06:48:25;15.00;95.50
53748;DHT22;39655;53.210;5.768;2022-09-09T06:51:05;15.00;95.50
53748;DHT22;39655;53.210;5.768;2022-09-09T06:53:38;15.00;95.40
53748;DHT22;39655;53.210;5.768;2022-09-09T06:58:42;15.00;95.30
53748;DHT22;39655;53.210;5.768;2022-09-09T07:01:13;15.10;95.30
53748;DHT22;39655;53.210;5.768;2022-09-09T07:03:42;15.10;95.20
53748;DHT22;39655;53.210;5.768;2022-09-09T07:06:15;15.10;95.20
53748;DHT22;39655;53.210;5.768;2022-09-09T07:08:48;15.10;95.10
53748;DHT22;39655;53.210;5.768;2022-09-09T07:11:17;15.10;95.00
53748;DHT22;39655;53.210;5.768;2022-09-09T07:13:47;15.10;95.00
53748;DHT22;39655;53.210;5.768;2022-09-09T07:16:17;15.10;95.00
53748;DHT22;39655;53.210;5.768;2022-09-09T07:18:45;15.20;95.00
53748;DHT22;39655;53.210;5.768;2022-09-09T07:21:14;15.20;94.90
53748;DHT22;39655;53.210;5.768;2022-09-09T07:23:58;15.20;94.90
53748;DHT22;39655;53.210;5.768;2022-09-09T07:26:34;15.20;94.90
53748;DHT22;39655;53.210;5.768;2022-09-09T07:28:59;15.30;94.80
53748;DHT22;39655;53.210;5.768;2022-09-09T07:31:30;15.30;94.80
53748;DHT22;39655;53.210;5.768;2022-09-09T07:33:56;15.30;94.80
53748;DHT22;39655;53.210;5.768;2022-09-09T07:36:25;15.40;94.80
53748;DHT22;39655;53.210;5.768;2022-09-09T07:38:55;15.50;94.70
53748;DHT22;39655;53.210;5.768;2022-09-09T07:41:24;15.50;94.70
53748;DHT22;39655;53.210;5.768;2022-09-09T07:43:50;15.60;94.70
53748;DHT22;39655;53.210;5.768;2022-09-09T07:46:21;15.70;94.60
53748;DHT22;39655;53.210;5.768;2022-09-09T07:48:52;15.80;94.50
53748;DHT22;39655;53.210;5.768;2022-09-09T07:51:30;15.90;94.40
53748;DHT22;39655;53.210;5.768;2022-09-09T07:53:58;16.00;94.20
53748;DHT22;39655;53.210;5.768;2022-09-09T07:56:26;16.00;93.90
53748;DHT22;39655;53.210;5.768;2022-09-09T07:58:53;16.00;93.50
53748;DHT22;39655;53.210;5.768;2022-09-09T08:01:30;15.90;93.20
53748;DHT22;39655;53.210;5.768;2022-09-09T08:04:02;15.90;93.10
53748;DHT22;39655;53.210;5.768;2022-09-09T08:06:31;15.90;92.90
53748;DHT22;39655;53.210;5.768;2022-09-09T08:08:58;16.00;93.00
53748;DHT22;39655;53.210;5.768;2022-09-09T08:11:26;16.10;92.90
53748;DHT22;39655;53.210;5.768;2022-09-09T08:13:52;16.10;93.10
53748;DHT22;39655;53.210;5.768;2022-09-09T08:16:23;16.20;93.00
53748;DHT22;39655;53.210;5.768;2022-09-09T08:18:56;16.30;92.60
53748;DHT22;39655;53.210;5.768;2022-09-09T08:21:28;16.40;92.30
53748;DHT22;39655;53.210;5.768;2022-09-09T08:23:55;16.50;92.30
53748;DHT22;39655;53.210;5.768;2022-09-09T08:26:24;16.50;92.00
53748;DHT22;39655;53.210;5.768;2022-09-09T08:29:10;16.60;92.10
53748;DHT22;39655;53.210;5.768;2022-09-09T08:32:10;16.70;92.20
53748;DHT22;39655;53.210;5.768;2022-09-09T08:34:44;16.70;91.70
53748;DHT22;39655;53.210;5.768;2022-09-09T08:37:19;16.80;92.10
53748;DHT22;39655;53.210;5.768;2022-09-09T08:39:46;16.80;91.90
53748;DHT22;39655;53.210;5.768;2022-09-09T08:52:29;17.10;90.50
53748;DHT22;39655;53.210;5.768;2022-09-09T08:55:57;17.40;91.20
53748;DHT22;39655;53.210;5.768;2022-09-09T08:58:48;17.50;89.90
53748;DHT22;39655;53.210;5.768;2022-09-09T09:12:22;17.70;87.50
53748;DHT22;39655;53.210;5.768;2022-09-09T09:14:51;17.70;87.50
53748;DHT22;39655;53.210;5.768;2022-09-09T09:17:59;17.70;87.00
53748;DHT22;39655;53.210;5.768;2022-09-09T09:34:00;17.50;87.20
53748;DHT22;39655;53.210;5.768;2022-09-09T09:37:07;17.50;86.50
53748;DHT22;39655;53.210;5.768;2022-09-09T09:39:46;17.60;86.90
53748;DHT22;39655;53.210;5.768;2022-09-09T09:42:17;17.70;86.80
53748;DHT22;39655;53.210;5.768;2022-09-09T09:44:57;17.70;86.10
53748;DHT22;39655;53.210;5.768;2022-09-09T09:47:35;17.80;86.30
53748;DHT22;39655;53.210;5.768;2022-09-09T09:53:20;17.90;85.50
53748;DHT22;39655;53.210;5.768;2022-09-09T09:59:04;18.20;84.40
53748;DHT22;39655;53.210;5.768;2022-09-09T10:01:48;18.30;84.90
53748;DHT22;39655;53.210;5.768;2022-09-09T10:04:32;18.40;83.80
53748;DHT22;39655;53.210;5.768;2022-09-09T10:07:13;18.60;83.30
53748;DHT22;39655;53.210;5.768;2022-09-09T10:09:41;18.70;82.50
53748;DHT22;39655;53.210;5.768;2022-09-09T10:27:42;19.10;80.90
53748;DHT22;39655;53.210;5.768;2022-09-09T10:39:11;19.50;81.20
53748;DHT22;39655;53.210;5.768;2022-09-09T10:42:30;19.60;78.70
53748;DHT22;39655;53.210;5.768;2022-09-09T10:53:34;19.60;77.60
53748;DHT22;39655;53.210;5.768;2022-09-09T10:56:10;19.60;78.10
53748;DHT22;39655;53.210;5.768;2022-09-09T10:58:46;19.80;77.20
53748;DHT22;39655;53.210;5.768;2022-09-09T11:01:31;19.80;76.50
53748;DHT22;39655;53.210;5.768;2022-09-09T11:04:05;19.80;76.40
53748;DHT22;39655;53.210;5.768;2022-09-09T11:06:41;19.80;77.20
53748;DHT22;39655;53.210;5.768;2022-09-09T11:09:15;20.00;78.00
53748;DHT22;39655;53.210;5.768;2022-09-09T11:11:50;20.00;76.30
53748;DHT22;39655;53.210;5.768;2022-09-09T11:14:28;19.90;75.30
53748;DHT22;39655;53.210;5.768;2022-09-09T11:17:06;20.00;76.00
53748;DHT22;39655;53.210;5.768;2022-09-09T11:19:47;20.10;75.80
53748;DHT22;39655;53.210;5.768;2022-09-09T11:22:27;20.10;75.80
53748;DHT22;39655;53.210;5.768;2022-09-09T11:27:49;20.10;75.70
53748;DHT22;39655;53.210;5.768;2022-09-09T11:30:47;20.10;75.30
53748;DHT22;39655;53.210;5.768;2022-09-09T11:36:31;20.20;74.80
53748;DHT22;39655;53.210;5.768;2022-09-09T11:42:25;20.60;72.30
53748;DHT22;39655;53.210;5.768;2022-09-09T11:44:51;20.60;72.70
53748;DHT22;39655;53.210;5.768;2022-09-09T11:49:47;20.80;71.60
53748;DHT22;39655;53.210;5.768;2022-09-09T11:52:39;21.00;73.00
53748;DHT22;39655;53.210;5.768;2022-09-09T11:58:37;20.80;71.40
53748;DHT22;39655;53.210;5.768;2022-09-09T12:01:14;20.90;73.20
53748;DHT22;39655;53.210;5.768;2022-09-09T12:03:49;21.10;71.30
53748;DHT22;39655;53.210;5.768;2022-09-09T12:06:32;21.20;72.70
53748;DHT22;39655;53.210;5.768;2022-09-09T12:09:08;21.20;70.30
53748;DHT22;39655;53.210;5.768;2022-09-09T12:11:37;21.20;69.50
53748;DHT22;39655;53.210;5.768;2022-09-09T12:14:03;21.10;71.40
53748;DHT22;39655;53.210;5.768;2022-09-09T12:16:31;21.00;70.60
53748;DHT22;39655;53.210;5.768;2022-09-09T12:22:05;20.80;71.20
53748;DHT22;39655;53.210;5.768;2022-09-09T12:24:38;20.60;72.20
53748;DHT22;39655;53.210;5.768;2022-09-09T12:27:18;20.50;72.90
53748;DHT22;39655;53.210;5.768;2022-09-09T12:29:58;20.30;72.70
53748;DHT22;39655;53.210;5.768;2022-09-09T12:36:27;20.20;73.90
53748;DHT22;39655;53.210;5.768;2022-09-09T12:42:30;20.40;72.30
53748;DHT22;39655;53.210;5.768;2022-09-09T12:45:27;20.20;73.50
53748;DHT22;39655;53.210;5.768;2022-09-09T12:48:37;20.30;74.40
53748;DHT22;39655;53.210;5.768;2022-09-09T12:51:28;20.60;74.50
53748;DHT22;39655;53.210;5.768;2022-09-09T12:54:01;20.60;72.50
53748;DHT22;39655;53.210;5.768;2022-09-09T12:56:35;20.70;71.80
53748;DHT22;39655;53.210;5.768;2022-09-09T12:59:03;20.90;72.40
53748;DHT22;39655;53.210;5.768;2022-09-09T13:01:38;21.30;71.30
53748;DHT22;39655;53.210;5.768;2022-09-09T13:04:19;21.50;72.00
53748;DHT22;39655;53.210;5.768;2022-09-09T13:06:45;21.90;71.10
53748;DHT22;39655;53.210;5.768;2022-09-09T13:09:11;22.30;69.30
53748;DHT22;39655;53.210;5.768;2022-09-09T13:11:49;22.60;68.00
53748;DHT22;39655;53.210;5.768;2022-09-09T13:14:35;22.50;67.50
53748;DHT22;39655;53.210;5.768;2022-09-09T13:17:06;22.10;68.30
53748;DHT22;39655;53.210;5.768;2022-09-09T13:19:37;21.90;68.90
53748;DHT22;39655;53.210;5.768;2022-09-09T13:22:39;21.70;69.10
53748;DHT22;39655;53.210;5.768;2022-09-09T13:33:21;21.60;72.30
53748;DHT22;39655;53.210;5.768;2022-09-09T13:40:28;21.70;72.90
53748;DHT22;39655;53.210;5.768;2022-09-09T13:42:57;21.70;71.20
53748;DHT22;39655;53.210;5.768;2022-09-09T13:45:25;21.40;69.60
53748;DHT22;39655;53.210;5.768;2022-09-09T13:47:56;21.20;70.10
53748;DHT22;39655;53.210;5.768;2022-09-09T13:50:28;21.00;72.00
53748;DHT22;39655;53.210;5.768;2022-09-09T13:52:56;20.90;74.20
53748;DHT22;39655;53.210;5.768;2022-09-09T13:55:25;21.00;76.20
53748;DHT22;39655;53.210;5.768;2022-09-09T13:58:05;21.00;74.90
53748;DHT22;39655;53.210;5.768;2022-09-09T14:00:37;21.10;75.00
53748;DHT22;39655;53.210;5.768;2022-09-09T14:03:11;21.30;76.00
53748;DHT22;39655;53.210;5.768;2022-09-09T14:05:38;21.60;74.00
53748;DHT22;39655;53.210;5.768;2022-09-09T14:08:16;22.00;72.10
53748;DHT22;39655;53.210;5.768;2022-09-09T14:10:42;22.50;70.10
53748;DHT22;39655;53.210;5.768;2022-09-09T14:13:10;22.70;68.40
53748;DHT22;39655;53.210;5.768;2022-09-09T14:15:38;22.70;69.40
53748;DHT22;39655;53.210;5.768;2022-09-09T14:18:04;23.20;70.10
53748;DHT22;39655;53.210;5.768;2022-09-09T14:20:44;23.30;65.10
53748;DHT22;39655;53.210;5.768;2022-09-09T14:23:11;23.60;65.60
53748;DHT22;39655;53.210;5.768;2022-09-09T14:25:42;23.60;65.50
53748;DHT22;39655;53.210;5.768;2022-09-09T14:28:10;24.00;65.90
53748;DHT22;39655;53.210;5.768;2022-09-09T14:30:39;24.50;64.40
53748;DHT22;39655;53.210;5.768;2022-09-09T14:33:11;24.90;62.70
53748;DHT22;39655;53.210;5.768;2022-09-09T14:35:36;24.70;61.10
53748;DHT22;39655;53.210;5.768;2022-09-09T14:38:03;24.30;62.30
53748;DHT22;39655;53.210;5.768;2022-09-09T14:40:29;24.10;62.30
53748;DHT22;39655;53.210;5.768;2022-09-09T14:42:55;23.90;62.90
53748;DHT22;39655;53.210;5.768;2022-09-09T14:45:22;23.70;63.20
53748;DHT22;39655;53.210;5.768;2022-09-09T14:47:50;23.20;62.60
53748;DHT22;39655;53.210;5.768;2022-09-09T14:50:20;22.60;64.40
53748;DHT22;39655;53.210;5.768;2022-09-09T14:52:48;22.30;66.40
53748;DHT22;39655;53.210;5.768;2022-09-09T14:55:19;22.10;68.50
53748;DHT22;39655;53.210;5.768;2022-09-09T14:57:59;21.70;68.60
53748;DHT22;39655;53.210;5.768;2022-09-09T15:00:30;21.50;69.00
53748;DHT22;39655;53.210;5.768;2022-09-09T15:03:01;21.10;68.90
53748;DHT22;39655;53.210;5.768;2022-09-09T15:05:32;20.80;69.50
53748;DHT22;39655;53.210;5.768;2022-09-09T15:08:13;20.60;71.70
53748;DHT22;39655;53.210;5.768;2022-09-09T15:10:47;20.30;73.90
53748;DHT22;39655;53.210;5.768;2022-09-09T15:13:18;20.10;76.10
53748;DHT22;39655;53.210;5.768;2022-09-09T15:15:44;20.10;77.70
53748;DHT22;39655;53.210;5.768;2022-09-09T15:18:10;20.10;78.80
53748;DHT22;39655;53.210;5.768;2022-09-09T15:20:36;20.10;79.30
53748;DHT22;39655;53.210;5.768;2022-09-09T15:23:04;20.20;81.10
53748;DHT22;39655;53.210;5.768;2022-09-09T15:25:53;20.40;80.00
53748;DHT22;39655;53.210;5.768;2022-09-09T15:28:32;20.60;80.30
53748;DHT22;39655;53.210;5.768;2022-09-09T15:34:42;21.20;78.80
53748;DHT22;39655;53.210;5.768;2022-09-09T15:37:11;21.40;77.70
53748;DHT22;39655;53.210;5.768;2022-09-09T15:39:45;21.30;76.70
53748;DHT22;39655;53.210;5.768;2022-09-09T15:46:18;21.10;76.70
53748;DHT22;39655;53.210;5.768;2022-09-09T15:49:06;20.80;78.40
53748;DHT22;39655;53.210;5.768;2022-09-09T15:51:35;20.60;78.80
53748;DHT22;39655;53.210;5.768;2022-09-09T15:54:22;20.60;79.50
53748;DHT22;39655;53.210;5.768;2022-09-09T15:56:58;20.50;79.20
53748;DHT22;39655;53.210;5.768;2022-09-09T15:59:42;20.50;79.00
53748;DHT22;39655;53.210;5.768;2022-09-09T16:02:11;20.50;79.80
53748;DHT22;39655;53.210;5.768;2022-09-09T16:04:42;20.60;79.50
53748;DHT22;39655;53.210;5.768;2022-09-09T16:07:10;20.60;79.90
53748;DHT22;39655;53.210;5.768;2022-09-09T16:09:36;20.60;80.20
53748;DHT22;39655;53.210;5.768;2022-09-09T16:12:04;20.50;79.60
53748;DHT22;39655;53.210;5.768;2022-09-09T16:14:35;20.40;80.50
53748;DHT22;39655;53.210;5.768;2022-09-09T16:17:10;20.40;80.40
53748;DHT22;39655;53.210;5.768;2022-09-09T16:22:23;20.40;80.20
53748;DHT22;39655;53.210;5.768;2022-09-09T16:24:59;20.40;80.60
53748;DHT22;39655;53.210;5.768;2022-09-09T16:27:25;20.40;80.30
53748;DHT22;39655;53.210;5.768;2022-09-09T16:29:54;20.30;80.60
53748;DHT22;39655;53.210;5.768;2022-09-09T16:36:27;20.10;80.60
53748;DHT22;39655;53.210;5.768;2022-09-09T16:39:21;19.90;80.10
53748;DHT22;39655;53.210;5.768;2022-09-09T16:50:27;19.10;79.50
53748;DHT22;39655;53.210;5.768;2022-09-09T16:53:32;19.10;81.10
53748;DHT22;39655;53.210;5.768;2022-09-09T16:56:43;19.10;81.60
53748;DHT22;39655;53.210;5.768;2022-09-09T16:59:17;19.20;82.60
53748;DHT22;39655;53.210;5.768;2022-09-09T17:02:27;19.20;82.40
53748;DHT22;39655;53.210;5.768;2022-09-09T17:06:26;19.20;83.50
53748;DHT22;39655;53.210;5.768;2022-09-09T17:09:18;19.30;83.20
53748;DHT22;39655;53.210;5.768;2022-09-09T17:12:17;19.20;83.60
53748;DHT22;39655;53.210;5.768;2022-09-09T17:15:22;19.20;83.90
53748;DHT22;39655;53.210;5.768;2022-09-09T17:21:34;19.10;83.30
53748;DHT22;39655;53.210;5.768;2022-09-09T17:24:00;19.00;83.90
53748;DHT22;39655;53.210;5.768;2022-09-09T18:25:15;18.50;86.70
53748;DHT22;39655;53.210;5.768;2022-09-09T18:28:14;18.40;86.80
53748;DHT22;39655;53.210;5.768;2022-09-09T18:33:36;18.50;86.70
53748;DHT22;39655;53.210;5.768;2022-09-09T18:39:12;18.40;86.70
53748;DHT22;39655;53.210;5.768;2022-09-09T18:41:52;18.30;86.90
53748;DHT22;39655;53.210;5.768;2022-09-09T18:44:23;18.30;87.00
53748;DHT22;39655;53.210;5.768;2022-09-09T18:46:52;18.30;87.10
53748;DHT22;39655;53.210;5.768;2022-09-09T18:49:20;18.20;87.20
53748;DHT22;39655;53.210;5.768;2022-09-09T18:51:55;18.20;87.30
53748;DHT22;39655;53.210;5.768;2022-09-09T19:05:47;18.10;87.70
53748;DHT22;39655;53.210;5.768;2022-09-09T19:08:52;18.10;87.70
53748;DHT22;39655;53.210;5.768;2022-09-09T19:11:29;18.10;87.80
53748;DHT22;39655;53.210;5.768;2022-09-09T19:30:02;18.00;88.80
53748;DHT22;39655;53.210;5.768;2022-09-09T19:32:48;17.90;88.90
53748;DHT22;39655;53.210;5.768;2022-09-09T19:35:24;17.90;88.90
53748;DHT22;39655;53.210;5.768;2022-09-09T19:37:58;17.90;89.20
53748;DHT22;39655;53.210;5.768;2022-09-09T19:43:32;17.90;89.50
53748;DHT22;39655;53.210;5.768;2022-09-09T19:46:43;17.90;89.50
53748;DHT22;39655;53.210;5.768;2022-09-09T19:52:50;17.90;89.50
53748;DHT22;39655;53.210;5.768;2022-09-09T19:55:41;17.90;89.60
53748;DHT22;39655;53.210;5.768;2022-09-09T19:58:13;17.90;89.60
53748;DHT22;39655;53.210;5.768;2022-09-09T20:00:39;17.80;89.60
53748;DHT22;39655;53.210;5.768;2022-09-09T20:03:07;17.80;89.50
53748;DHT22;39655;53.210;5.768;2022-09-09T20:05:36;17.80;89.60
53748;DHT22;39655;53.210;5.768;2022-09-09T20:08:29;17.80;89.70
53748;DHT22;39655;53.210;5.768;2022-09-09T20:10:58;17.80;89.60
53748;DHT22;39655;53.210;5.768;2022-09-09T20:13:30;17.80;89.50
53748;DHT22;39655;53.210;5.768;2022-09-09T20:16:16;17.80;89.60
53748;DHT22;39655;53.210;5.768;2022-09-09T20:19:12;17.70;89.60
53748;DHT22;39655;53.210;5.768;2022-09-09T20:21:51;17.70;89.70
53748;DHT22;39655;53.210;5.768;2022-09-09T20:24:24;17.70;89.80
53748;DHT22;39655;53.210;5.768;2022-09-09T20:27:24;17.70;89.80
53748;DHT22;39655;53.210;5.768;2022-09-09T20:29:53;17.60;89.90
53748;DHT22;39655;53.210;5.768;2022-09-09T20:32:19;17.60;90.00
53748;DHT22;39655;53.210;5.768;2022-09-09T20:34:46;17.60;90.10
53748;DHT22;39655;53.210;5.768;2022-09-09T20:37:12;17.50;90.10
53748;DHT22;39655;53.210;5.768;2022-09-09T20:39:38;17.50;90.10
53748;DHT22;39655;53.210;5.768;2022-09-09T20:42:06;17.50;90.10
53748;DHT22;39655;53.210;5.768;2022-09-09T20:44:38;17.50;90.20
53748;DHT22;39655;53.210;5.768;2022-09-09T20:47:04;17.40;90.20
53748;DHT22;39655;53.210;5.768;2022-09-09T20:49:37;17.40;90.20
53748;DHT22;39655;53.210;5.768;2022-09-09T20:52:03;17.40;90.10
53748;DHT22;39655;53.210;5.768;2022-09-09T20:54:32;17.40;90.10
53748;DHT22;39655;53.210;5.768;2022-09-09T20:56:59;17.30;90.20